Time;durP1;ratioP1;P1;durP2;ratioP2;P2;SDS_P1;SDS_P2;PMS_P1;PMS_P2;Temp;Humidity;BMP_temperature;BMP_pressure;BME280_temperature;BME280_humidity;BME280_pressure;Samples;Min_cycle;Max_cycle;Signal;HPM_P1;HPM_P2
2022/09/27 00:01:55;;;;;;;0.63;0.63;;;20.70;96.20;;;;;;5034396;28;20532;-65
2022/09/27 00:04:22;;;;;;;0.50;0.50;;;20.70;96.30;;;;;;5034268;28;20457;-65
2022/09/27 00:06:50;;;;;;;0.73;0.73;;;20.70;96.30;;;;;;5035213;28;20892;-65
2022/09/27 00:09:17;;;;;;;0.63;0.63;;;20.70;96.30;;;;;;5052730;28;20488;-65
2022/09/27 00:11:44;;;;;;;0.83;0.83;;;20.70;96.30;;;;;;5054061;28;20445;-65
2022/09/27 00:14:13;;;;;;;0.70;0.70;;;20.70;96.20;;;;;;5054135;28;20483;-65
2022/09/27 00:16:41;;;;;;;0.70;0.70;;;20.70;96.30;;;;;;5040358;28;20572;-65
2022/09/27 00:19:12;;;;;;;0.60;0.60;;;20.70;96.30;;;;;;5034227;28;20532;-65
2022/09/27 00:21:39;;;;;;;0.80;0.67;;;20.70;96.20;;;;;;5034015;28;20950;-65
2022/09/27 00:24:11;;;;;;;1.33;1.23;;;20.70;96.20;;;;;;5034169;28;20471;-65
2022/09/27 00:26:38;;;;;;;0.83;0.80;;;20.70;96.20;;;;;;5046980;28;20511;-65
2022/09/27 00:29:05;;;;;;;1.17;0.60;;;20.60;96.20;;;;;;5053951;28;20445;-65
2022/09/27 00:31:32;;;;;;;0.90;0.90;;;20.60;96.20;;;;;;5053755;28;20535;-65
2022/09/27 00:34:01;;;;;;;1.23;0.70;;;20.60;96.20;;;;;;5054025;28;20458;-66
2022/09/27 00:36:29;;;;;;;0.50;0.50;;;20.60;96.30;;;;;;5067610;22;20569;-68
2022/09/27 00:38:58;;;;;;;0.70;0.60;;;20.60;96.30;;;;;;5021572;28;20499;-69
2022/09/27 00:41:28;;;;;;;0.70;0.70;;;20.60;96.30;;;;;;5013733;28;20453;-67
2022/09/27 00:43:57;;;;;;;0.80;0.80;;;20.60;96.30;;;;;;5013835;28;21006;-67
2022/09/27 00:46:29;;;;;;;0.80;0.80;;;20.60;96.20;;;;;;5013607;28;20537;-67
2022/09/27 00:49:05;;;;;;;0.83;0.83;;;20.60;96.30;;;;;;4994324;28;20872;-67
2022/09/27 00:51:37;;;;;;;0.77;0.77;;;20.60;96.30;;;;;;4994263;28;20530;-68
2022/09/27 00:54:05;;;;;;;1.33;1.23;;;20.60;96.20;;;;;;4994141;28;20497;-67
2022/09/27 00:56:35;;;;;;;0.60;0.60;;;20.50;96.30;;;;;;4993553;28;20474;-68
2022/09/27 00:59:07;;;;;;;1.43;0.80;;;20.50;96.20;;;;;;4993845;28;20482;-67
2022/09/27 01:01:33;;;;;;;1.03;0.67;;;20.50;96.20;;;;;;4993830;28;20451;-67
2022/09/27 01:04:06;;;;;;;0.90;0.90;;;20.50;96.30;;;;;;4993948;28;20538;-67
2022/09/27 01:06:33;;;;;;;1.87;0.97;;;20.50;96.20;;;;;;4993807;28;20447;-67
2022/09/27 01:09:00;;;;;;;0.70;0.70;;;20.50;96.30;;;;;;4994015;28;20529;-67
2022/09/27 01:11:39;;;;;;;0.70;0.67;;;20.50;96.20;;;;;;4993763;28;20534;-67
2022/09/27 01:14:22;;;;;;;0.60;0.60;;;20.50;96.20;;;;;;4993688;28;21026;-67
2022/09/27 01:16:55;;;;;;;0.80;0.80;;;20.50;96.20;;;;;;4993426;28;20487;-67
2022/09/27 01:19:56;;;;;;;0.70;0.70;;;20.50;96.20;;;;;;4993682;28;20551;-67
2022/09/27 01:22:26;;;;;;;0.60;0.60;;;20.50;96.10;;;;;;4993427;28;20447;-67
2022/09/27 01:25:17;;;;;;;0.73;0.73;;;20.40;96.10;;;;;;4993370;28;20542;-67
2022/09/27 01:28:12;;;;;;;0.63;0.60;;;20.40;96.20;;;;;;4993370;28;20492;-67
2022/09/27 01:30:45;;;;;;;1.50;1.40;;;20.40;96.20;;;;;;4993484;28;20479;-68
2022/09/27 01:33:25;;;;;;;0.90;0.90;;;20.40;96.20;;;;;;4993118;28;20539;-67
2022/09/27 01:36:09;;;;;;;0.50;0.50;;;20.40;96.10;;;;;;4993365;28;20558;-67
2022/09/27 01:38:55;;;;;;;0.60;0.60;;;20.40;96.10;;;;;;4993059;28;20577;-68
2022/09/27 01:41:29;;;;;;;1.10;1.00;;;20.40;96.00;;;;;;4993084;28;20451;-69
2022/09/27 01:44:03;;;;;;;0.80;0.63;;;20.40;96.10;;;;;;4992858;28;20478;-68
2022/09/27 01:46:38;;;;;;;0.73;0.73;;;20.40;96.40;;;;;;4993108;28;20539;-68
2022/09/27 01:49:11;;;;;;;0.57;0.57;;;20.40;96.10;;;;;;4992524;28;20868;-68
2022/09/27 01:51:43;;;;;;;0.60;0.60;;;20.30;96.00;;;;;;4992978;28;20821;-68
2022/09/27 01:54:17;;;;;;;0.50;0.50;;;20.30;95.90;;;;;;4993007;28;20447;-68
2022/09/27 01:56:48;;;;;;;0.50;0.50;;;20.30;95.90;;;;;;4992865;28;20512;-68
2022/09/27 01:59:19;;;;;;;3.43;0.77;;;20.30;96.00;;;;;;4992681;28;20461;-68
2022/09/27 02:01:51;;;;;;;0.50;0.50;;;20.30;95.90;;;;;;4992781;28;20446;-68
2022/09/27 02:04:23;;;;;;;0.60;0.60;;;20.30;96.00;;;;;;4992848;28;20486;-68
2022/09/27 02:06:59;;;;;;;0.90;0.60;;;20.30;96.00;;;;;;4992784;28;21063;-68
2022/09/27 02:09:31;;;;;;;0.87;0.50;;;20.30;95.90;;;;;;4992511;28;20513;-68
2022/09/27 02:12:02;;;;;;;0.50;0.50;;;20.30;95.80;;;;;;4992527;28;20486;-68
2022/09/27 02:14:35;;;;;;;3.23;1.60;;;20.30;95.90;;;;;;4992574;28;20534;-68
2022/09/27 02:17:12;;;;;;;1.67;0.67;;;20.30;95.80;;;;;;4992571;28;22344;-68
2022/09/27 02:19:48;;;;;;;0.50;0.50;;;20.30;95.80;;;;;;4992413;28;20451;-68
2022/09/27 02:22:17;;;;;;;0.70;0.70;;;20.30;95.90;;;;;;4992502;28;20888;-68
2022/09/27 02:24:50;;;;;;;1.90;0.70;;;20.30;96.00;;;;;;4992548;28;20526;-69
2022/09/27 02:27:23;;;;;;;0.60;0.60;;;20.30;95.80;;;;;;4992167;28;20463;-68
2022/09/27 02:29:58;;;;;;;0.50;0.50;;;20.20;95.90;;;;;;4992532;28;20478;-68
2022/09/27 02:32:27;;;;;;;0.50;0.50;;;20.20;95.90;;;;;;4991965;28;20553;-68
2022/09/27 02:34:56;;;;;;;0.87;0.80;;;20.30;95.80;;;;;;4992451;28;20453;-68
2022/09/27 02:37:23;;;;;;;0.50;0.50;;;20.20;95.80;;;;;;4991845;28;20484;-68
2022/09/27 02:39:50;;;;;;;1.07;0.50;;;20.20;95.80;;;;;;4992217;28;20554;-68
2022/09/27 02:42:17;;;;;;;0.50;0.50;;;20.20;95.90;;;;;;4992050;28;20482;-68
2022/09/27 02:44:44;;;;;;;0.50;0.50;;;20.20;95.80;;;;;;4992249;28;20479;-68
2022/09/27 02:47:41;;;;;;;1.07;0.60;;;20.20;95.70;;;;;;4991890;28;20509;-68
2022/09/27 02:50:29;;;;;;;0.50;0.50;;;20.20;95.80;;;;;;4992353;28;20527;-68
2022/09/27 02:53:06;;;;;;;0.60;0.60;;;20.20;95.70;;;;;;4992104;28;20479;-68
2022/09/27 02:55:49;;;;;;;0.70;0.70;;;20.20;95.70;;;;;;4992245;28;20989;-68
2022/09/27 02:58:26;;;;;;;0.80;0.80;;;20.20;95.90;;;;;;4991835;28;20522;-69
2022/09/27 03:01:01;;;;;;;0.60;0.60;;;20.20;95.90;;;;;;4992229;28;20538;-68
2022/09/27 03:03:37;;;;;;;0.53;0.50;;;20.10;95.70;;;;;;4992013;28;20518;-68
2022/09/27 03:06:07;;;;;;;0.70;0.70;;;20.20;95.80;;;;;;4992321;28;20521;-68
2022/09/27 03:08:34;;;;;;;0.80;0.80;;;20.10;95.80;;;;;;4991790;28;20580;-68
2022/09/27 03:11:01;;;;;;;0.63;0.63;;;20.10;95.80;;;;;;4992083;28;20895;-68
2022/09/27 03:13:28;;;;;;;0.70;0.70;;;20.10;95.70;;;;;;4991896;28;20893;-68
2022/09/27 03:15:55;;;;;;;0.50;0.50;;;20.20;95.80;;;;;;4992166;28;20537;-68
2022/09/27 03:18:22;;;;;;;0.50;0.50;;;20.10;95.70;;;;;;4991716;28;20527;-68
2022/09/27 03:20:52;;;;;;;0.60;0.60;;;20.10;95.70;;;;;;4991908;28;20447;-68
2022/09/27 03:23:19;;;;;;;0.87;0.60;;;20.10;95.80;;;;;;4991833;28;20482;-68
2022/09/27 03:25:46;;;;;;;0.67;0.67;;;20.10;95.80;;;;;;4992028;28;20945;-68
2022/09/27 03:28:13;;;;;;;0.80;0.80;;;20.10;95.70;;;;;;4991579;28;20921;-68
2022/09/27 03:30:41;;;;;;;0.50;0.50;;;20.10;95.80;;;;;;4991876;28;20534;-68
2022/09/27 03:33:09;;;;;;;0.60;0.60;;;20.10;95.70;;;;;;4991708;28;20579;-68
2022/09/27 03:35:36;;;;;;;0.60;0.60;;;20.10;95.70;;;;;;4991585;28;20447;-68
2022/09/27 03:38:05;;;;;;;0.50;0.50;;;20.10;95.70;;;;;;4991398;28;21039;-69
2022/09/27 03:40:32;;;;;;;0.50;0.50;;;20.10;95.70;;;;;;4991780;28;20454;-69
2022/09/27 03:42:59;;;;;;;0.50;0.50;;;20.10;95.70;;;;;;4991571;28;20474;-68
2022/09/27 03:45:26;;;;;;;0.47;0.47;;;20.10;95.70;;;;;;4993517;28;20482;-68
2022/09/27 03:47:53;;;;;;;0.60;0.60;;;20.10;95.80;;;;;;4995002;28;20494;-68
2022/09/27 03:50:21;;;;;;;0.60;0.60;;;20.10;95.80;;;;;;4995239;28;20932;-68
2022/09/27 03:52:47;;;;;;;0.90;0.80;;;20.00;95.80;;;;;;4995020;28;20865;-68
2022/09/27 03:55:16;;;;;;;0.50;0.50;;;20.00;95.70;;;;;;4995026;28;20491;-68
2022/09/27 03:57:45;;;;;;;0.70;0.70;;;20.00;95.70;;;;;;4994856;28;20565;-68
2022/09/27 04:00:13;;;;;;;0.73;0.73;;;20.00;95.80;;;;;;4995182;28;20450;-68
2022/09/27 04:02:40;;;;;;;0.70;0.70;;;20.00;95.80;;;;;;4994852;28;20650;-68
2022/09/27 04:05:07;;;;;;;0.50;0.50;;;20.00;95.90;;;;;;4994695;28;20534;-69
2022/09/27 04:07:34;;;;;;;1.57;0.77;;;20.00;95.80;;;;;;4995011;28;20475;-68
2022/09/27 04:10:01;;;;;;;0.50;0.50;;;20.00;95.80;;;;;;4995008;28;20543;-68
2022/09/27 04:12:29;;;;;;;0.50;0.50;;;20.00;95.90;;;;;;4994669;28;21006;-68
2022/09/27 04:14:56;;;;;;;0.97;0.63;;;20.00;95.70;;;;;;4994965;28;20490;-68
2022/09/27 04:17:24;;;;;;;0.73;0.60;;;20.00;95.80;;;;;;4994646;28;20510;-68
2022/09/27 04:19:51;;;;;;;0.50;0.50;;;20.00;95.80;;;;;;4994745;28;20447;-68
2022/09/27 04:22:18;;;;;;;0.50;0.50;;;19.90;95.80;;;;;;4994572;28;20454;-68
2022/09/27 04:24:45;;;;;;;0.80;0.63;;;19.90;95.70;;;;;;4994597;28;20542;-67
2022/09/27 04:27:12;;;;;;;0.40;0.40;;;19.90;95.80;;;;;;4994206;28;20498;-67
2022/09/27 04:29:42;;;;;;;0.60;0.60;;;19.90;95.80;;;;;;4994788;28;20526;-67
2022/09/27 04:32:09;;;;;;;0.90;0.57;;;20.00;95.80;;;;;;4994438;28;20446;-67
2022/09/27 04:37:20;;;;;;;0.60;0.60;;;19.90;95.70;;;;;;4994214;28;20554;-67
2022/09/27 04:39:48;;;;;;;0.50;0.50;;;19.90;95.60;;;;;;4994253;28;20525;-67
2022/09/27 04:42:15;;;;;;;0.50;0.50;;;19.90;95.70;;;;;;4994235;28;20533;-68
2022/09/27 04:44:43;;;;;;;0.53;0.53;;;19.90;95.80;;;;;;4994057;28;20482;-67
2022/09/27 04:47:10;;;;;;;0.70;0.70;;;19.90;95.80;;;;;;4994184;28;20542;-68
2022/09/27 04:49:38;;;;;;;0.50;0.50;;;19.90;95.90;;;;;;4994311;28;20479;-68
2022/09/27 04:52:05;;;;;;;0.90;0.90;;;19.90;95.90;;;;;;4994084;28;20442;-67
2022/09/27 04:54:32;;;;;;;0.50;0.50;;;19.80;95.90;;;;;;4993876;28;20454;-67
2022/09/27 04:56:59;;;;;;;0.60;0.60;;;19.80;95.90;;;;;;4993734;28;20901;-67
2022/09/27 04:59:26;;;;;;;0.60;0.60;;;19.80;95.70;;;;;;4994012;28;20487;-68
2022/09/27 05:01:54;;;;;;;0.50;0.50;;;19.80;95.80;;;;;;4993904;28;20506;-67
2022/09/27 05:04:22;;;;;;;0.70;0.70;;;19.80;95.90;;;;;;4993663;28;20546;-67
2022/09/27 05:06:49;;;;;;;0.60;0.60;;;19.80;95.90;;;;;;4993812;28;20473;-67
2022/09/27 05:09:15;;;;;;;0.60;0.60;;;19.80;95.90;;;;;;4993695;28;20526;-68
2022/09/27 05:11:42;;;;;;;0.70;0.70;;;19.80;95.70;;;;;;4993664;28;20546;-67
2022/09/27 05:14:09;;;;;;;0.50;0.50;;;19.80;95.70;;;;;;4993484;28;20494;-67
2022/09/27 05:16:36;;;;;;;0.87;0.60;;;19.80;95.60;;;;;;4993506;28;20483;-68
2022/09/27 05:19:04;;;;;;;1.20;1.07;;;19.80;95.60;;;;;;4993526;28;20478;-68
2022/09/27 05:21:32;;;;;;;2.50;1.30;;;19.80;95.70;;;;;;4993701;28;20759;-68
2022/09/27 05:24:00;;;;;;;5.47;2.37;;;19.80;96.70;;;;;;4993398;28;20526;-68
2022/09/27 05:26:26;;;;;;;4.80;1.40;;;19.80;97.10;;;;;;4992279;28;20454;-66
2022/09/27 05:28:53;;;;;;;4.73;1.70;;;19.80;99.50;;;;;;4992829;28;20526;-68
2022/09/27 05:31:20;;;;;;;5.97;2.57;;;19.80;99.90;;;;;;4992937;28;20526;-68
2022/09/27 05:33:47;;;;;;;3.50;1.77;;;19.80;99.90;;;;;;4993160;28;20478;-68
2022/09/27 05:36:15;;;;;;;6.93;2.00;;;19.80;99.90;;;;;;4993035;28;20530;-68
2022/09/27 05:38:42;;;;;;;4.30;2.00;;;19.80;99.90;;;;;;4992915;28;20530;-68
2022/09/27 05:41:09;;;;;;;3.83;3.10;;;19.70;99.90;;;;;;4993063;28;20530;-68
2022/09/27 05:43:36;;;;;;;9.37;3.00;;;19.70;99.90;;;;;;4993011;28;20443;-68
2022/09/27 05:46:04;;;;;;;5.77;3.80;;;19.70;99.90;;;;;;4992718;28;20479;-68
2022/09/27 05:48:31;;;;;;;11.60;2.20;;;19.70;99.90;;;;;;4993013;28;20491;-69
2022/09/27 05:50:58;;;;;;;11.97;1.90;;;19.70;99.90;;;;;;4993042;28;20874;-69
2022/09/27 05:53:26;;;;;;;6.07;2.13;;;19.70;99.90;;;;;;4992638;28;20742;-69
2022/09/27 05:55:53;;;;;;;5.20;2.80;;;19.70;99.90;;;;;;4992740;28;20533;-69
2022/09/27 05:58:20;;;;;;;7.43;2.33;;;19.70;99.90;;;;;;4992790;28;20577;-69
2022/09/27 06:00:47;;;;;;;3.43;1.90;;;19.70;99.90;;;;;;4992892;28;20478;-69
2022/09/27 06:03:14;;;;;;;4.47;2.20;;;19.70;99.90;;;;;;4992647;28;20478;-69
2022/09/27 06:05:41;;;;;;;3.00;1.90;;;19.70;99.90;;;;;;4992825;28;20443;-69
2022/09/27 06:08:10;;;;;;;4.20;1.77;;;19.70;99.90;;;;;;4992157;28;20474;-69
2022/09/27 06:10:39;;;;;;;4.33;1.90;;;19.70;99.90;;;;;;4992722;28;20475;-69
2022/09/27 06:13:08;;;;;;;3.33;1.73;;;19.70;99.90;;;;;;4992443;28;20443;-69
2022/09/27 06:15:36;;;;;;;8.40;1.80;;;19.70;99.90;;;;;;4992635;28;20531;-69
2022/09/27 06:18:05;;;;;;;7.30;1.70;;;19.70;99.90;;;;;;4992478;28;20471;-69
2022/09/27 06:20:32;;;;;;;3.03;1.37;;;19.70;99.90;;;;;;4992596;28;20526;-69
2022/09/27 06:23:07;;;;;;;2.33;1.17;;;19.60;99.90;;;;;;4992282;28;21018;-69
2022/09/27 06:25:34;;;;;;;3.70;1.57;;;19.60;99.80;;;;;;4992654;28;20521;-69
2022/09/27 06:28:04;;;;;;;4.93;1.70;;;19.60;99.60;;;;;;4992426;28;20467;-69
2022/09/27 06:30:31;;;;;;;6.40;3.13;;;19.60;99.50;;;;;;4992498;28;20530;-69
2022/09/27 06:32:59;;;;;;;6.97;3.67;;;19.60;99.40;;;;;;4992268;28;20483;-69
2022/09/27 06:35:27;;;;;;;4.77;1.90;;;19.60;99.20;;;;;;4992484;28;20479;-69
2022/09/27 06:37:55;;;;;;;3.27;3.07;;;19.60;99.00;;;;;;5034389;22;21086;-67
2022/09/27 06:40:23;;;;;;;2.17;1.20;;;19.60;99.00;;;;;;5019894;28;20473;-68
2022/09/27 06:42:50;;;;;;;2.73;1.20;;;19.60;98.70;;;;;;5011787;28;20477;-67
2022/09/27 06:45:19;;;;;;;1.83;1.53;;;19.60;98.70;;;;;;5012053;28;20877;-68
2022/09/27 06:47:46;;;;;;;2.23;1.30;;;19.60;98.60;;;;;;5011720;28;20474;-67
2022/09/27 06:50:13;;;;;;;2.00;1.03;;;19.60;98.50;;;;;;5011906;28;20445;-67
2022/09/27 06:52:47;;;;;;;2.50;1.83;;;19.60;98.40;;;;;;5011611;28;20541;-68
2022/09/27 06:55:14;;;;;;;4.10;1.37;;;19.60;98.30;;;;;;5011915;28;20477;-67
2022/09/27 07:00:27;;;;;;;3.90;1.23;;;19.60;98.20;;;;;;5011754;28;20477;-68
2022/09/27 07:02:59;;;;;;;2.47;0.97;;;19.60;98.10;;;;;;5011506;28;20541;-68
2022/09/27 07:05:28;;;;;;;3.90;1.60;;;19.50;98.00;;;;;;5011815;28;20457;-68
2022/09/27 07:07:56;;;;;;;3.97;1.33;;;19.50;97.80;;;;;;5011572;28;20557;-68
2022/09/27 07:10:24;;;;;;;1.83;1.10;;;19.50;97.70;;;;;;5011638;28;20454;-67
2022/09/27 07:12:51;;;;;;;1.63;1.33;;;19.50;97.70;;;;;;5011396;28;20474;-68
2022/09/27 07:15:19;;;;;;;2.40;1.80;;;19.50;97.60;;;;;;5011521;28;20478;-68
2022/09/27 07:17:48;;;;;;;2.10;1.30;;;19.50;97.60;;;;;;5011434;28;20473;-68
2022/09/27 07:20:15;;;;;;;2.60;1.20;;;19.50;97.40;;;;;;5015190;28;20787;-68
2022/09/27 07:22:44;;;;;;;3.43;1.27;;;19.50;97.40;;;;;;5015249;28;20509;-67
2022/09/27 07:25:10;;;;;;;1.10;0.63;;;19.50;97.30;;;;;;5015507;28;20450;-68
2022/09/27 07:27:40;;;;;;;2.33;1.40;;;19.50;97.30;;;;;;5015338;28;20568;-68
2022/09/27 07:30:08;;;;;;;1.43;1.27;;;19.50;97.20;;;;;;5015238;28;20830;-68
2022/09/27 07:32:35;;;;;;;1.17;1.07;;;19.50;97.10;;;;;;5015023;28;20450;-68
2022/09/27 07:35:05;;;;;;;1.20;0.80;;;19.50;97.10;;;;;;5015206;28;20519;-68
2022/09/27 07:37:32;;;;;;;1.27;0.97;;;19.50;97.00;;;;;;5014899;28;20562;-68
2022/09/27 07:39:59;;;;;;;4.73;1.17;;;19.50;96.90;;;;;;5015073;28;20489;-68
2022/09/27 07:42:27;;;;;;;1.10;1.00;;;19.50;96.80;;;;;;5015053;28;20540;-68
2022/09/27 07:44:54;;;;;;;1.60;1.00;;;19.50;96.80;;;;;;5015040;28;20544;-68
2022/09/27 07:47:22;;;;;;;4.30;1.27;;;19.50;96.70;;;;;;5014952;28;20557;-67
2022/09/27 07:49:50;;;;;;;1.47;1.00;;;19.50;96.70;;;;;;5014927;28;20537;-68
2022/09/27 07:52:19;;;;;;;2.20;1.10;;;19.50;96.60;;;;;;5014725;28;20454;-68
2022/09/27 07:54:46;;;;;;;1.90;1.07;;;19.50;96.60;;;;;;5014840;28;20808;-68
2022/09/27 07:57:13;;;;;;;0.83;0.80;;;19.50;96.60;;;;;;5014745;28;20556;-68
2022/09/27 07:59:40;;;;;;;0.70;0.70;;;19.50;96.50;;;;;;5014560;28;20568;-68
2022/09/27 08:02:11;;;;;;;1.20;1.10;;;19.50;96.40;;;;;;5014512;28;20533;-69
2022/09/27 08:04:37;;;;;;;1.83;1.03;;;19.40;96.30;;;;;;5014735;28;20811;-67
2022/09/27 08:07:04;;;;;;;1.27;1.17;;;19.50;96.30;;;;;;5014427;28;20477;-67
2022/09/27 08:09:33;;;;;;;0.97;0.87;;;19.40;96.20;;;;;;5014561;28;20521;-68
2022/09/27 08:12:00;;;;;;;3.47;1.00;;;19.40;96.20;;;;;;5014351;28;20489;-68
2022/09/27 08:14:27;;;;;;;5.33;1.90;;;19.40;96.20;;;;;;5014446;28;20872;-68
2022/09/27 08:16:54;;;;;;;0.93;0.73;;;19.40;96.10;;;;;;5014329;28;20875;-68
2022/09/27 08:19:21;;;;;;;0.77;0.70;;;19.40;96.00;;;;;;5014322;28;20486;-67
2022/09/27 08:21:48;;;;;;;1.13;0.90;;;19.40;96.00;;;;;;5014168;28;20477;-68
2022/09/27 08:24:15;;;;;;;1.17;1.17;;;19.40;96.00;;;;;;5014358;28;20450;-67
2022/09/27 08:26:43;;;;;;;1.30;1.20;;;19.40;95.90;;;;;;5014222;28;20481;-67
2022/09/27 08:29:11;;;;;;;1.13;1.00;;;19.40;95.90;;;;;;5014435;28;20553;-67
2022/09/27 08:31:38;;;;;;;0.80;0.70;;;19.40;95.80;;;;;;5013400;28;20452;-67
2022/09/27 08:34:05;;;;;;;3.80;1.03;;;19.40;95.80;;;;;;5014005;28;20486;-67
2022/09/27 08:36:34;;;;;;;1.27;0.90;;;19.40;95.70;;;;;;5014051;28;20533;-68
2022/09/27 08:39:01;;;;;;;1.23;0.70;;;19.40;95.70;;;;;;5013933;28;20485;-67
2022/09/27 08:41:37;;;;;;;0.60;0.60;;;19.40;95.70;;;;;;5013792;28;20485;-67
2022/09/27 08:44:14;;;;;;;1.07;1.00;;;19.40;95.60;;;;;;5013906;28;20608;-68
2022/09/27 08:46:52;;;;;;;1.73;0.60;;;19.40;95.60;;;;;;5013989;28;20533;-67
2022/09/27 08:49:24;;;;;;;1.50;1.40;;;19.40;95.50;;;;;;5013907;28;20824;-67
2022/09/27 08:51:53;;;;;;;2.13;0.97;;;19.40;95.50;;;;;;5013654;28;20450;-67
2022/09/27 08:54:23;;;;;;;0.70;0.60;;;19.40;95.40;;;;;;5013648;28;20526;-68
2022/09/27 08:56:52;;;;;;;0.67;0.67;;;19.40;95.40;;;;;;5013569;28;20540;-68
2022/09/27 08:59:25;;;;;;;3.27;1.20;;;19.40;95.40;;;;;;5013564;28;20514;-68
2022/09/27 09:01:54;;;;;;;1.57;0.70;;;19.30;95.30;;;;;;5013369;28;20784;-67
2022/09/27 09:04:36;;;;;;;0.73;0.70;;;19.40;95.30;;;;;;5013424;28;20450;-67
2022/09/27 09:07:13;;;;;;;1.27;1.00;;;19.40;95.20;;;;;;5013366;28;20512;-68
2022/09/27 09:09:48;;;;;;;0.67;0.67;;;19.40;95.20;;;;;;5013519;28;20582;-67
2022/09/27 09:15:32;;;;;;;0.80;0.80;;;19.40;95.10;;;;;;5013429;28;20441;-67
2022/09/27 09:18:22;;;;;;;0.70;0.70;;;19.40;95.10;;;;;;5013409;28;20553;-68
2022/09/27 09:20:58;;;;;;;0.60;0.53;;;19.30;95.00;;;;;;5013104;28;20580;-68
2022/09/27 09:23:50;;;;;;;1.60;0.90;;;19.40;95.30;;;;;;5012990;28;20858;-68
2022/09/27 09:26:24;;;;;;;1.23;0.70;;;19.40;95.00;;;;;;5012975;28;20530;-68
2022/09/27 09:29:03;;;;;;;0.90;0.70;;;19.40;94.90;;;;;;5012906;28;20549;-68
2022/09/27 09:31:40;;;;;;;1.30;1.27;;;19.40;94.90;;;;;;5012955;28;20533;-67
2022/09/27 09:34:14;;;;;;;1.60;0.70;;;19.30;94.80;;;;;;5012865;28;20485;-67
2022/09/27 09:36:46;;;;;;;1.00;0.80;;;19.30;94.80;;;;;;5012927;28;20504;-68
2022/09/27 09:39:16;;;;;;;0.63;0.63;;;19.40;94.80;;;;;;5012640;28;20478;-67
2022/09/27 09:41:53;;;;;;;1.43;1.10;;;19.40;94.70;;;;;;5011977;28;20535;-67
2022/09/27 09:44:26;;;;;;;0.60;0.60;;;19.40;94.70;;;;;;5012735;28;20525;-68
2022/09/27 09:46:57;;;;;;;0.50;0.50;;;19.40;94.60;;;;;;5012764;28;20549;-67
2022/09/27 09:49:29;;;;;;;2.00;0.70;;;19.40;94.60;;;;;;5012653;28;20533;-67
2022/09/27 09:52:01;;;;;;;0.80;0.60;;;19.40;94.60;;;;;;5012599;28;20452;-68
2022/09/27 09:54:33;;;;;;;1.37;1.10;;;19.40;94.50;;;;;;5012619;28;20529;-68
2022/09/27 09:57:06;;;;;;;1.10;1.10;;;19.40;94.50;;;;;;5012535;28;20461;-68
2022/09/27 09:59:39;;;;;;;0.63;0.63;;;19.30;94.40;;;;;;5012588;28;20576;-68
2022/09/27 10:02:20;;;;;;;0.60;0.60;;;19.40;94.40;;;;;;5012340;28;20446;-67
2022/09/27 10:04:47;;;;;;;0.90;0.90;;;19.40;94.40;;;;;;5012445;28;20865;-67
2022/09/27 10:07:16;;;;;;;1.73;0.60;;;19.40;94.30;;;;;;5012490;28;20855;-67
2022/09/27 10:09:44;;;;;;;0.90;0.70;;;19.30;94.30;;;;;;5012426;28;20657;-67
2022/09/27 10:12:11;;;;;;;0.60;0.60;;;19.30;94.20;;;;;;5012191;28;20491;-67
2022/09/27 10:14:39;;;;;;;0.50;0.50;;;19.40;94.20;;;;;;5012393;28;20512;-67
2022/09/27 10:17:13;;;;;;;0.70;0.70;;;19.40;94.20;;;;;;5012122;28;20558;-68
2022/09/27 10:19:42;;;;;;;1.53;0.60;;;19.40;94.20;;;;;;5012381;28;20909;-67
2022/09/27 10:22:16;;;;;;;0.90;0.90;;;19.40;94.10;;;;;;5012005;28;20530;-67
2022/09/27 10:24:55;;;;;;;1.23;0.60;;;19.40;94.10;;;;;;5012240;28;20536;-67
2022/09/27 10:27:23;;;;;;;0.57;0.50;;;19.40;94.10;;;;;;5012201;28;20990;-67
2022/09/27 10:29:57;;;;;;;0.63;0.63;;;19.40;94.00;;;;;;5012141;28;20449;-67
2022/09/27 10:32:31;;;;;;;0.70;0.70;;;19.40;94.00;;;;;;5011814;28;20452;-67
2022/09/27 10:35:19;;;;;;;0.70;0.70;;;19.40;93.90;;;;;;5012079;28;20446;-67
2022/09/27 10:37:46;;;;;;;0.50;0.50;;;19.40;93.90;;;;;;5011835;28;21070;-67
2022/09/27 10:40:26;;;;;;;0.50;0.50;;;19.40;93.80;;;;;;5011942;28;20514;-67
2022/09/27 10:42:53;;;;;;;0.50;0.50;;;19.40;93.90;;;;;;5011758;28;20445;-68
2022/09/27 10:45:27;;;;;;;0.80;0.80;;;19.40;93.80;;;;;;5011982;28;20537;-67
2022/09/27 10:47:56;;;;;;;0.77;0.77;;;19.40;93.80;;;;;;5011860;28;20549;-67
2022/09/27 10:50:25;;;;;;;1.43;1.20;;;19.40;93.70;;;;;;5011928;28;20537;-67
2022/09/27 10:53:03;;;;;;;0.70;0.60;;;19.30;93.60;;;;;;5011749;28;20450;-67
2022/09/27 10:55:33;;;;;;;0.70;0.70;;;19.40;93.70;;;;;;5016030;28;20453;-68
2022/09/27 10:58:01;;;;;;;0.50;0.50;;;19.40;93.70;;;;;;5015849;28;20557;-68
2022/09/27 11:00:31;;;;;;;0.67;0.67;;;19.40;93.60;;;;;;5015811;28;20557;-68
2022/09/27 11:03:01;;;;;;;1.20;0.70;;;19.30;93.50;;;;;;5015622;28;20537;-68
2022/09/27 11:05:35;;;;;;;1.23;0.73;;;19.40;93.60;;;;;;5015670;28;20489;-67
2022/09/27 11:08:03;;;;;;;0.50;0.50;;;19.40;93.50;;;;;;5015701;28;20498;-68
2022/09/27 11:10:32;;;;;;;1.03;0.50;;;19.40;93.50;;;;;;5015632;28;20525;-68
2022/09/27 11:13:13;;;;;;;1.43;0.60;;;19.30;93.40;;;;;;5015448;28;20880;-68
2022/09/27 11:15:54;;;;;;;0.50;0.50;;;19.30;93.40;;;;;;5015630;28;20533;-67
2022/09/27 11:18:32;;;;;;;1.50;0.60;;;19.40;93.40;;;;;;5015358;28;21049;-67
2022/09/27 11:21:08;;;;;;;0.43;0.43;;;19.40;93.30;;;;;;5015494;28;20572;-68
2022/09/27 11:23:56;;;;;;;0.50;0.50;;;19.30;93.20;;;;;;5015315;28;20532;-67
2022/09/27 11:26:36;;;;;;;0.70;0.60;;;19.40;93.30;;;;;;5015431;28;20948;-68
2022/09/27 11:29:15;;;;;;;0.50;0.50;;;19.30;93.20;;;;;;5015276;28;20545;-68
2022/09/27 11:31:52;;;;;;;0.63;0.63;;;19.40;93.30;;;;;;5015112;28;20476;-68
2022/09/27 11:35:06;;;;;;;1.27;1.17;;;19.40;93.20;;;;;;5015127;28;20450;-68
2022/09/27 11:37:47;;;;;;;0.50;0.50;;;19.40;93.10;;;;;;4999891;28;20581;-68
2022/09/27 11:40:25;;;;;;;0.50;0.50;;;19.40;93.10;;;;;;5015084;28;20488;-67
2022/09/27 11:43:18;;;;;;;0.40;0.40;;;19.40;93.10;;;;;;5014879;28;20532;-68
2022/09/27 11:45:55;;;;;;;0.60;0.50;;;19.40;93.10;;;;;;5014918;28;20886;-68
2022/09/27 11:48:36;;;;;;;0.50;0.50;;;19.40;93.10;;;;;;5014878;28;20934;-68
2022/09/27 11:51:12;;;;;;;0.67;0.67;;;19.40;93.00;;;;;;5014908;28;20870;-68
2022/09/27 11:54:04;;;;;;;0.40;0.40;;;19.30;93.00;;;;;;5014769;28;20532;-68
2022/09/27 11:56:40;;;;;;;0.50;0.47;;;19.40;93.00;;;;;;5014975;28;20519;-67
2022/09/27 11:59:41;;;;;;;0.70;0.70;;;19.40;93.00;;;;;;5014763;28;20461;-68
2022/09/27 12:02:24;;;;;;;0.50;0.50;;;19.40;92.90;;;;;;5014420;28;20477;-68
2022/09/27 12:05:29;;;;;;;1.77;0.90;;;19.40;92.90;;;;;;5013911;28;21014;-67
2022/09/27 12:08:13;;;;;;;0.50;0.50;;;19.40;92.80;;;;;;5014319;28;20495;-68
2022/09/27 12:10:46;;;;;;;0.50;0.50;;;19.40;92.80;;;;;;5014632;28;20475;-68
2022/09/27 12:13:15;;;;;;;0.60;0.60;;;19.40;92.80;;;;;;5014324;28;21021;-68
2022/09/27 12:15:45;;;;;;;0.70;0.70;;;19.40;92.80;;;;;;5014579;28;20533;-68
2022/09/27 12:18:21;;;;;;;0.50;0.50;;;19.40;92.80;;;;;;5014440;28;20501;-68
2022/09/27 12:20:49;;;;;;;0.50;0.50;;;19.40;92.70;;;;;;5014312;28;20831;-68
2022/09/27 12:23:21;;;;;;;0.50;0.50;;;19.40;92.60;;;;;;5017671;28;20470;-68
2022/09/27 12:25:54;;;;;;;0.50;0.50;;;19.40;92.60;;;;;;5016972;28;20529;-67
2022/09/27 12:28:33;;;;;;;1.33;0.70;;;19.40;92.50;;;;;;5014118;28;20466;-68
2022/09/27 12:31:07;;;;;;;0.50;0.50;;;19.40;92.50;;;;;;5014175;28;20439;-68
2022/09/27 12:33:41;;;;;;;0.50;0.50;;;19.40;92.50;;;;;;5013903;28;20457;-67
2022/09/27 12:36:15;;;;;;;0.60;0.60;;;19.40;92.50;;;;;;5014162;28;20458;-68
2022/09/27 12:38:47;;;;;;;1.27;0.90;;;19.40;92.50;;;;;;5049709;22;20497;-67
2022/09/27 12:41:19;;;;;;;0.50;0.50;;;19.50;92.50;;;;;;5013879;28;20478;-67
2022/09/27 12:43:48;;;;;;;0.50;0.50;;;19.40;92.40;;;;;;5014278;28;20780;-68
2022/09/27 12:46:25;;;;;;;0.50;0.50;;;19.50;92.40;;;;;;5013989;28;20446;-67
2022/09/27 12:48:59;;;;;;;0.70;0.50;;;19.40;92.30;;;;;;5013946;28;20480;-67
2022/09/27 12:51:33;;;;;;;0.70;0.60;;;19.40;92.30;;;;;;5013805;28;20443;-67
2022/09/27 12:54:23;;;;;;;0.50;0.50;;;19.50;92.30;;;;;;5013927;28;20477;-68
2022/09/27 12:57:02;;;;;;;0.43;0.43;;;19.40;92.20;;;;;;5013702;28;20454;-68
2022/09/27 12:59:44;;;;;;;0.53;0.53;;;19.40;92.20;;;;;;5013574;28;20813;-68
2022/09/27 13:02:51;;;;;;;0.40;0.40;;;19.40;92.20;;;;;;5013468;28;20486;-67
2022/09/27 13:05:59;;;;;;;0.50;0.50;;;19.40;92.20;;;;;;5013665;28;20442;-67
2022/09/27 13:08:42;;;;;;;0.50;0.50;;;19.40;92.10;;;;;;5013420;28;20466;-67
2022/09/27 13:11:15;;;;;;;0.70;0.70;;;19.40;92.10;;;;;;5013653;28;20442;-68
2022/09/27 13:13:44;;;;;;;1.53;0.60;;;19.40;92.10;;;;;;5013682;28;20537;-67
2022/09/27 13:16:11;;;;;;;0.73;0.73;;;19.40;92.10;;;;;;5013218;28;20448;-67
2022/09/27 13:18:54;;;;;;;0.50;0.50;;;19.40;92.10;;;;;;5013322;28;20545;-68
2022/09/27 13:21:58;;;;;;;0.50;0.50;;;19.40;92.00;;;;;;5019534;28;20540;-68